sensor_id;sensor_type;location;lat;lon;timestamp;pressure;altitude;pressure_sealevel;temperature;humidity
32251;BME280;41295;48.518;9.206;2023-03-16T00:01:07;97524.34;;;3.10;64.61
32251;BME280;41295;48.518;9.206;2023-03-16T00:03:09;97524.34;;;3.12;64.78
32251;BME280;41295;48.518;9.206;2023-03-16T00:05:13;97518.31;;;3.11;64.73
32251;BME280;41295;48.518;9.206;2023-03-16T00:07:16;97531.22;;;3.10;64.57
32251;BME280;41295;48.518;9.206;2023-03-16T00:09:18;97533.78;;;3.11;64.74
32251;BME280;41295;48.518;9.206;2023-03-16T00:11:21;97531.22;;;3.10;64.17
32251;BME280;41295;48.518;9.206;2023-03-16T00:13:24;97519.22;;;3.09;64.28
32251;BME280;41295;48.518;9.206;2023-03-16T00:15:28;97519.22;;;3.07;64.30
32251;BME280;41295;48.518;9.206;2023-03-16T00:17:30;97522.63;;;3.06;64.08
32251;BME280;41295;48.518;9.206;2023-03-16T00:19:35;97525.22;;;3.05;64.43
32251;BME280;41295;48.518;9.206;2023-03-16T00:21:37;97529.53;;;3.03;64.87
32251;BME280;41295;48.518;9.206;2023-03-16T00:23:40;97533.81;;;3.02;65.06
32251;BME280;41295;48.518;9.206;2023-03-16T00:25:43;97531.25;;;2.97;64.48
32251;BME280;41295;48.518;9.206;2023-03-16T00:27:45;97534.72;;;2.96;64.60
32251;BME280;41295;48.518;9.206;2023-03-16T00:29:49;97528.72;;;2.93;64.77
32251;BME280;41295;48.518;9.206;2023-03-16T00:31:57;97531.28;;;2.93;64.41
32251;BME280;41295;48.518;9.206;2023-03-16T00:34:00;97528.72;;;2.91;64.53
32251;BME280;41295;48.518;9.206;2023-03-16T00:36:04;97539.03;;;2.85;64.57
32251;BME280;41295;48.518;9.206;2023-03-16T00:38:11;97542.47;;;2.79;65.10
32251;BME280;41295;48.518;9.206;2023-03-16T00:40:14;97537.31;;;2.76;65.60
32251;BME280;41295;48.518;9.206;2023-03-16T00:42:18;97547.59;;;2.79;65.02
32251;BME280;41295;48.518;9.206;2023-03-16T00:44:21;97538.19;;;2.80;64.99
32251;BME280;41295;48.518;9.206;2023-03-16T00:46:23;97539.03;;;2.79;64.81
32251;BME280;41295;48.518;9.206;2023-03-16T00:48:28;97542.47;;;2.78;65.53
32251;BME280;41295;48.518;9.206;2023-03-16T00:50:34;97539.03;;;2.75;65.38
32251;BME280;41295;48.518;9.206;2023-03-16T00:52:37;97538.19;;;2.75;65.01
32251;BME280;41295;48.518;9.206;2023-03-16T00:54:41;97548.50;;;2.75;65.07
32251;BME280;41295;48.518;9.206;2023-03-16T00:56:44;97545.91;;;2.75;65.47
32251;BME280;41295;48.518;9.206;2023-03-16T00:58:47;97555.38;;;2.70;65.02
32251;BME280;41295;48.518;9.206;2023-03-16T01:00:49;97547.63;;;2.67;65.44
32251;BME280;41295;48.518;9.206;2023-03-16T01:02:54;97534.75;;;2.65;65.42
32251;BME280;41295;48.518;9.206;2023-03-16T01:04:58;97539.91;;;2.68;65.12
32251;BME280;41295;48.518;9.206;2023-03-16T01:07:02;97537.34;;;2.70;65.72
32251;BME280;41295;48.518;9.206;2023-03-16T01:09:05;97536.47;;;2.69;65.73
32251;BME280;41295;48.518;9.206;2023-03-16T01:11:13;97539.06;;;2.71;66.16
32251;BME280;41295;48.518;9.206;2023-03-16T01:13:17;97538.19;;;2.70;65.79
32251;BME280;41295;48.518;9.206;2023-03-16T01:15:20;97537.34;;;2.70;66.35
32251;BME280;41295;48.518;9.206;2023-03-16T01:17:23;97528.75;;;2.69;65.70
32251;BME280;41295;48.518;9.206;2023-03-16T01:19:25;97527.91;;;2.67;65.96
32251;BME280;41295;48.518;9.206;2023-03-16T01:21:29;97532.19;;;2.65;65.93
32251;BME280;41295;48.518;9.206;2023-03-16T01:23:34;97527.03;;;2.67;65.63
32251;BME280;41295;48.518;9.206;2023-03-16T01:25:37;97523.63;;;2.66;65.70
32251;BME280;41295;48.518;9.206;2023-03-16T01:27:40;97525.31;;;2.70;66.07
32251;BME280;41295;48.518;9.206;2023-03-16T01:29:43;97526.19;;;2.71;65.42
32251;BME280;41295;48.518;9.206;2023-03-16T01:31:46;97524.47;;;2.71;65.08
32251;BME280;41295;48.518;9.206;2023-03-16T01:33:50;97516.75;;;2.70;64.89
32251;BME280;41295;48.518;9.206;2023-03-16T01:35:53;97523.59;;;2.71;64.70
32251;BME280;41295;48.518;9.206;2023-03-16T01:37:57;97525.31;;;2.69;65.32
32251;BME280;41295;48.518;9.206;2023-03-16T01:40:00;97523.63;;;2.68;65.59
32251;BME280;41295;48.518;9.206;2023-03-16T01:42:04;97532.19;;;2.70;65.85
32251;BME280;41295;48.518;9.206;2023-03-16T01:44:09;97528.75;;;2.68;65.33
32251;BME280;41295;48.518;9.206;2023-03-16T01:46:20;97526.16;;;2.64;65.76
32251;BME280;41295;48.518;9.206;2023-03-16T01:48:25;97521.88;;;2.67;65.84
32251;BME280;41295;48.518;9.206;2023-03-16T01:50:28;97518.44;;;2.64;65.78
32251;BME280;41295;48.518;9.206;2023-03-16T01:52:34;97519.31;;;2.63;65.28
32251;BME280;41295;48.518;9.206;2023-03-16T01:54:43;97512.47;;;2.56;65.34
32251;BME280;41295;48.518;9.206;2023-03-16T01:56:51;97512.47;;;2.51;65.65
32251;BME280;41295;48.518;9.206;2023-03-16T01:59:01;97509.06;;;2.48;66.22
32251;BME280;41295;48.518;9.206;2023-03-16T02:01:07;97513.34;;;2.46;66.05
32251;BME280;41295;48.518;9.206;2023-03-16T02:03:12;97509.03;;;2.49;66.44
32251;BME280;41295;48.518;9.206;2023-03-16T02:05:20;97513.31;;;2.49;66.70
32251;BME280;41295;48.518;9.206;2023-03-16T02:07:26;97505.59;;;2.49;66.91
32251;BME280;41295;48.518;9.206;2023-03-16T02:09:30;97503.91;;;2.49;66.57
32251;BME280;41295;48.518;9.206;2023-03-16T02:11:35;97508.19;;;2.47;66.35
32251;BME280;41295;48.518;9.206;2023-03-16T02:13:38;97497.88;;;2.47;66.13
32251;BME280;41295;48.518;9.206;2023-03-16T02:15:40;97495.31;;;2.47;66.54
32251;BME280;41295;48.518;9.206;2023-03-16T02:17:44;97491.88;;;2.45;66.31
32251;BME280;41295;48.518;9.206;2023-03-16T02:19:53;97493.59;;;2.42;65.81
32251;BME280;41295;48.518;9.206;2023-03-16T02:22:03;97495.34;;;2.43;65.85
32251;BME280;41295;48.518;9.206;2023-03-16T02:24:07;97485.88;;;2.38;65.18
32251;BME280;41295;48.518;9.206;2023-03-16T02:26:14;97487.59;;;2.39;65.52
32251;BME280;41295;48.518;9.206;2023-03-16T02:28:26;97478.16;;;2.40;65.86
32251;BME280;41295;48.518;9.206;2023-03-16T02:30:34;97472.16;;;2.36;65.32
32251;BME280;41295;48.518;9.206;2023-03-16T02:32:37;97476.47;;;2.36;65.47
32251;BME280;41295;48.518;9.206;2023-03-16T02:34:41;97474.75;;;2.35;65.19
32251;BME280;41295;48.518;9.206;2023-03-16T02:36:45;97467.03;;;2.28;65.42
32251;BME280;41295;48.518;9.206;2023-03-16T02:38:49;97460.19;;;2.24;64.91
32251;BME280;41295;48.518;9.206;2023-03-16T02:40:56;97461.88;;;2.25;64.80
32251;BME280;41295;48.518;9.206;2023-03-16T02:43:02;97465.31;;;2.23;65.46
32251;BME280;41295;48.518;9.206;2023-03-16T02:45:06;97466.19;;;2.25;65.12
32251;BME280;41295;48.518;9.206;2023-03-16T02:47:15;97468.75;;;2.23;64.95
32251;BME280;41295;48.518;9.206;2023-03-16T02:49:25;97472.19;;;2.22;65.33
32251;BME280;41295;48.518;9.206;2023-03-16T02:51:28;97479.91;;;2.22;65.75
32251;BME280;41295;48.518;9.206;2023-03-16T02:53:32;97473.06;;;2.21;66.14
32251;BME280;41295;48.518;9.206;2023-03-16T02:55:35;97479.91;;;2.19;66.14
32251;BME280;41295;48.518;9.206;2023-03-16T02:57:38;97485.06;;;2.19;66.53
32251;BME280;41295;48.518;9.206;2023-03-16T02:59:40;97489.34;;;2.19;67.08
32251;BME280;41295;48.518;9.206;2023-03-16T03:01:43;97484.19;;;2.19;66.37
32251;BME280;41295;48.518;9.206;2023-03-16T03:03:47;97478.19;;;2.20;66.68
32251;BME280;41295;48.518;9.206;2023-03-16T03:05:49;97481.63;;;2.19;66.12
32251;BME280;41295;48.518;9.206;2023-03-16T03:07:52;97477.31;;;2.14;66.09
32251;BME280;41295;48.518;9.206;2023-03-16T03:09:54;97475.59;;;2.18;65.71
32251;BME280;41295;48.518;9.206;2023-03-16T03:11:57;97471.34;;;2.11;65.04
32251;BME280;41295;48.518;9.206;2023-03-16T03:13:59;97472.19;;;2.05;65.28
32251;BME280;41295;48.518;9.206;2023-03-16T03:16:02;97465.31;;;2.02;65.51
32251;BME280;41295;48.518;9.206;2023-03-16T03:18:05;97463.63;;;1.98;65.41
32251;BME280;41295;48.518;9.206;2023-03-16T03:20:11;97467.91;;;2.01;64.87
32251;BME280;41295;48.518;9.206;2023-03-16T03:22:17;97460.19;;;1.98;65.08
32251;BME280;41295;48.518;9.206;2023-03-16T03:24:19;97457.63;;;1.98;65.44
32251;BME280;41295;48.518;9.206;2023-03-16T03:26:22;97456.75;;;1.96;65.67
32251;BME280;41295;48.518;9.206;2023-03-16T03:28:25;97450.75;;;1.92;65.09
32251;BME280;41295;48.518;9.206;2023-03-16T03:30:28;97449.03;;;1.88;65.39
32251;BME280;41295;48.518;9.206;2023-03-16T03:32:30;97454.19;;;1.86;65.20
32251;BME280;41295;48.518;9.206;2023-03-16T03:34:33;97446.47;;;1.85;64.92
32251;BME280;41295;48.518;9.206;2023-03-16T03:36:37;97447.34;;;1.84;64.84
32251;BME280;41295;48.518;9.206;2023-03-16T03:38:39;97456.75;;;1.83;65.27
32251;BME280;41295;48.518;9.206;2023-03-16T03:40:42;97449.91;;;1.82;65.23
32251;BME280;41295;48.518;9.206;2023-03-16T03:42:45;97454.19;;;1.80;65.77
32251;BME280;41295;48.518;9.206;2023-03-16T03:44:48;97447.34;;;1.82;64.61
32251;BME280;41295;48.518;9.206;2023-03-16T03:46:51;97445.59;;;1.83;64.79
32251;BME280;41295;48.518;9.206;2023-03-16T03:48:54;97445.59;;;1.83;64.77
32251;BME280;41295;48.518;9.206;2023-03-16T03:50:58;97439.63;;;1.85;64.76
32251;BME280;41295;48.518;9.206;2023-03-16T03:53:02;97439.63;;;1.85;64.69
32251;BME280;41295;48.518;9.206;2023-03-16T03:55:06;97436.19;;;1.83;64.29
32251;BME280;41295;48.518;9.206;2023-03-16T03:57:08;97437.03;;;1.80;64.41
32251;BME280;41295;48.518;9.206;2023-03-16T03:59:11;97437.91;;;1.79;64.52
32251;BME280;41295;48.518;9.206;2023-03-16T04:01:14;97432.75;;;1.76;64.32
32251;BME280;41295;48.518;9.206;2023-03-16T04:03:16;97432.75;;;1.75;64.25
32251;BME280;41295;48.518;9.206;2023-03-16T04:05:19;97443.06;;;1.75;65.04
32251;BME280;41295;48.518;9.206;2023-03-16T04:07:22;97437.91;;;1.75;64.62
32251;BME280;41295;48.518;9.206;2023-03-16T04:09:26;97436.19;;;1.77;64.78
32251;BME280;41295;48.518;9.206;2023-03-16T04:11:28;97432.75;;;1.79;65.25
32251;BME280;41295;48.518;9.206;2023-03-16T04:13:31;97434.47;;;1.79;65.08
32251;BME280;41295;48.518;9.206;2023-03-16T04:15:34;97440.47;;;1.81;65.09
32251;BME280;41295;48.518;9.206;2023-03-16T04:17:38;97426.75;;;1.79;65.95
32251;BME280;41295;48.518;9.206;2023-03-16T04:19:41;97433.63;;;1.80;66.42
32251;BME280;41295;48.518;9.206;2023-03-16T04:21:44;97432.75;;;1.79;65.26
32251;BME280;41295;48.518;9.206;2023-03-16T04:23:47;97431.91;;;1.77;65.48
32251;BME280;41295;48.518;9.206;2023-03-16T04:25:51;97428.50;;;1.77;64.89
32251;BME280;41295;48.518;9.206;2023-03-16T04:27:55;97422.47;;;1.72;65.33
32251;BME280;41295;48.518;9.206;2023-03-16T04:29:58;97426.75;;;1.76;64.95
32251;BME280;41295;48.518;9.206;2023-03-16T04:32:00;97420.75;;;1.71;64.47
32251;BME280;41295;48.518;9.206;2023-03-16T04:34:03;97419.03;;;1.66;64.47
32251;BME280;41295;48.518;9.206;2023-03-16T04:36:06;97420.75;;;1.67;65.45
32251;BME280;41295;48.518;9.206;2023-03-16T04:38:09;97416.47;;;1.65;65.33
32251;BME280;41295;48.518;9.206;2023-03-16T04:40:13;97419.91;;;1.64;65.56
32251;BME280;41295;48.518;9.206;2023-03-16T04:42:21;97415.59;;;1.63;65.73
32251;BME280;41295;48.518;9.206;2023-03-16T04:44:23;97409.63;;;1.65;65.23
32251;BME280;41295;48.518;9.206;2023-03-16T04:46:26;97413.88;;;1.66;65.33
32251;BME280;41295;48.518;9.206;2023-03-16T04:48:30;97418.19;;;1.67;65.63
32251;BME280;41295;48.518;9.206;2023-03-16T04:50:33;97412.19;;;1.65;64.56
32251;BME280;41295;48.518;9.206;2023-03-16T04:52:36;97418.16;;;1.63;64.74
32251;BME280;41295;48.518;9.206;2023-03-16T04:54:38;97411.31;;;1.62;65.19
32251;BME280;41295;48.518;9.206;2023-03-16T04:56:41;97414.75;;;1.62;65.04
32251;BME280;41295;48.518;9.206;2023-03-16T04:58:46;97415.59;;;1.58;64.59
32251;BME280;41295;48.518;9.206;2023-03-16T05:00:50;97423.31;;;1.60;64.45
32251;BME280;41295;48.518;9.206;2023-03-16T05:02:53;97413.91;;;1.59;64.35
32251;BME280;41295;48.518;9.206;2023-03-16T05:04:55;97411.31;;;1.55;64.61
32251;BME280;41295;48.518;9.206;2023-03-16T05:06:58;97410.47;;;1.58;64.67
32251;BME280;41295;48.518;9.206;2023-03-16T05:09:00;97411.31;;;1.54;64.34
32251;BME280;41295;48.518;9.206;2023-03-16T05:11:05;97407.03;;;1.53;64.22
32251;BME280;41295;48.518;9.206;2023-03-16T05:13:08;97413.03;;;1.53;64.49
32251;BME280;41295;48.518;9.206;2023-03-16T05:15:12;97405.34;;;1.52;64.76
32251;BME280;41295;48.518;9.206;2023-03-16T05:17:15;97405.31;;;1.50;64.35
32251;BME280;41295;48.518;9.206;2023-03-16T05:19:17;97413.88;;;1.52;64.36
32251;BME280;41295;48.518;9.206;2023-03-16T05:21:20;97423.34;;;1.52;64.40
32251;BME280;41295;48.518;9.206;2023-03-16T05:23:23;97417.31;;;1.53;64.78
32251;BME280;41295;48.518;9.206;2023-03-16T05:25:25;97424.16;;;1.48;64.58
32251;BME280;41295;48.518;9.206;2023-03-16T05:27:28;97419.03;;;1.49;64.24
32251;BME280;41295;48.518;9.206;2023-03-16T05:29:31;97409.59;;;1.47;65.12
32251;BME280;41295;48.518;9.206;2023-03-16T05:31:36;97416.47;;;1.48;64.70
32251;BME280;41295;48.518;9.206;2023-03-16T05:33:38;97413.03;;;1.46;64.78
32251;BME280;41295;48.518;9.206;2023-03-16T05:35:41;97413.88;;;1.41;64.91
32251;BME280;41295;48.518;9.206;2023-03-16T05:37:44;97409.59;;;1.37;64.76
32251;BME280;41295;48.518;9.206;2023-03-16T05:39:46;97414.75;;;1.36;64.92
32251;BME280;41295;48.518;9.206;2023-03-16T05:41:49;97409.56;;;1.34;64.46
32251;BME280;41295;48.518;9.206;2023-03-16T05:43:52;97407.00;;;1.29;65.23
32251;BME280;41295;48.518;9.206;2023-03-16T05:45:54;97410.44;;;1.31;64.71
32251;BME280;41295;48.518;9.206;2023-03-16T05:47:58;97414.72;;;1.34;64.54
32251;BME280;41295;48.518;9.206;2023-03-16T05:50:01;97411.31;;;1.35;64.08
32251;BME280;41295;48.518;9.206;2023-03-16T05:52:04;97415.56;;;1.36;64.47
32251;BME280;41295;48.518;9.206;2023-03-16T05:54:06;97415.56;;;1.35;64.35
32251;BME280;41295;48.518;9.206;2023-03-16T05:56:09;97413.00;;;1.33;64.95
32251;BME280;41295;48.518;9.206;2023-03-16T05:58:11;97409.59;;;1.37;63.84
32251;BME280;41295;48.518;9.206;2023-03-16T06:00:17;97410.44;;;1.36;64.42
32251;BME280;41295;48.518;9.206;2023-03-16T06:02:21;97407.03;;;1.36;64.54
32251;BME280;41295;48.518;9.206;2023-03-16T06:04:25;97409.59;;;1.37;64.30
32251;BME280;41295;48.518;9.206;2023-03-16T06:06:28;97407.03;;;1.37;64.19
32251;BME280;41295;48.518;9.206;2023-03-16T06:08:31;97410.44;;;1.38;64.36
32251;BME280;41295;48.518;9.206;2023-03-16T06:10:33;97409.59;;;1.36;64.58
32251;BME280;41295;48.518;9.206;2023-03-16T06:12:36;97408.72;;;1.35;64.63
32251;BME280;41295;48.518;9.206;2023-03-16T06:14:39;97402.72;;;1.33;64.77
32251;BME280;41295;48.518;9.206;2023-03-16T06:16:42;97406.16;;;1.32;64.75
32251;BME280;41295;48.518;9.206;2023-03-16T06:18:45;97402.72;;;1.33;64.78
32251;BME280;41295;48.518;9.206;2023-03-16T06:20:48;97401.03;;;1.34;64.87
32251;BME280;41295;48.518;9.206;2023-03-16T06:22:51;97404.44;;;1.34;64.91
32251;BME280;41295;48.518;9.206;2023-03-16T06:24:54;97400.16;;;1.38;65.37
32251;BME280;41295;48.518;9.206;2023-03-16T06:26:56;97407.03;;;1.40;65.52
32251;BME280;41295;48.518;9.206;2023-03-16T06:28:59;97413.00;;;1.38;65.52
32251;BME280;41295;48.518;9.206;2023-03-16T06:31:01;97408.72;;;1.37;65.92
32251;BME280;41295;48.518;9.206;2023-03-16T06:33:04;97407.91;;;1.39;65.86
32251;BME280;41295;48.518;9.206;2023-03-16T06:35:08;97407.03;;;1.42;65.60
32251;BME280;41295;48.518;9.206;2023-03-16T06:37:13;97401.00;;;1.41;66.06
32251;BME280;41295;48.518;9.206;2023-03-16T06:39:16;97410.47;;;1.41;66.53
32251;BME280;41295;48.518;9.206;2023-03-16T06:41:18;97407.03;;;1.40;66.07
32251;BME280;41295;48.518;9.206;2023-03-16T06:43:21;97406.16;;;1.41;66.30
32251;BME280;41295;48.518;9.206;2023-03-16T06:45:24;97405.31;;;1.42;66.67
32251;BME280;41295;48.518;9.206;2023-03-16T06:47:27;97399.31;;;1.45;67.02
32251;BME280;41295;48.518;9.206;2023-03-16T06:49:29;97399.34;;;1.48;67.27
32251;BME280;41295;48.518;9.206;2023-03-16T06:51:32;97402.75;;;1.47;66.79
32251;BME280;41295;48.518;9.206;2023-03-16T06:53:36;97413.03;;;1.46;67.21
32251;BME280;41295;48.518;9.206;2023-03-16T06:55:38;97413.91;;;1.46;67.19
32251;BME280;41295;48.518;9.206;2023-03-16T06:57:41;97405.31;;;1.49;67.57
32251;BME280;41295;48.518;9.206;2023-03-16T06:59:44;97405.31;;;1.49;68.28
32251;BME280;41295;48.518;9.206;2023-03-16T07:01:47;97415.59;;;1.47;68.01
32251;BME280;41295;48.518;9.206;2023-03-16T07:03:50;97412.19;;;1.50;68.28
32251;BME280;41295;48.518;9.206;2023-03-16T07:05:53;97407.03;;;1.50;68.78
32251;BME280;41295;48.518;9.206;2023-03-16T07:07:58;97413.03;;;1.50;68.21
32251;BME280;41295;48.518;9.206;2023-03-16T07:10:03;97411.31;;;1.51;69.51
32251;BME280;41295;48.518;9.206;2023-03-16T07:12:06;97414.75;;;1.51;68.94
32251;BME280;41295;48.518;9.206;2023-03-16T07:14:08;97413.88;;;1.52;68.84
32251;BME280;41295;48.518;9.206;2023-03-16T07:16:12;97416.44;;;1.52;69.29
32251;BME280;41295;48.518;9.206;2023-03-16T07:18:14;97421.59;;;1.52;69.16
32251;BME280;41295;48.518;9.206;2023-03-16T07:20:17;97421.59;;;1.54;70.13
32251;BME280;41295;48.518;9.206;2023-03-16T07:22:24;97420.72;;;1.50;70.23
32251;BME280;41295;48.518;9.206;2023-03-16T07:24:26;97429.31;;;1.52;69.83
32251;BME280;41295;48.518;9.206;2023-03-16T07:26:30;97435.31;;;1.53;69.96
32251;BME280;41295;48.518;9.206;2023-03-16T07:28:33;97429.31;;;1.44;70.49
32251;BME280;41295;48.518;9.206;2023-03-16T07:30:36;97426.75;;;1.49;70.63
32251;BME280;41295;48.518;9.206;2023-03-16T07:32:39;97435.31;;;1.51;70.40
32251;BME280;41295;48.518;9.206;2023-03-16T07:34:42;97433.59;;;1.53;70.53
32251;BME280;41295;48.518;9.206;2023-03-16T07:36:44;97425.03;;;1.59;70.82
32251;BME280;41295;48.518;9.206;2023-03-16T07:38:48;97425.88;;;1.63;71.24
32251;BME280;41295;48.518;9.206;2023-03-16T07:40:51;97426.75;;;1.66;71.42
32251;BME280;41295;48.518;9.206;2023-03-16T07:42:55;97431.91;;;1.70;71.02
32251;BME280;41295;48.518;9.206;2023-03-16T07:44:58;97429.34;;;1.74;71.09
32251;BME280;41295;48.518;9.206;2023-03-16T07:47:01;97431.88;;;1.91;71.23
32251;BME280;41295;48.518;9.206;2023-03-16T07:49:04;97437.06;;;1.84;71.66
32251;BME280;41295;48.518;9.206;2023-03-16T07:51:10;97439.63;;;1.87;71.73
32251;BME280;41295;48.518;9.206;2023-03-16T07:53:14;97437.03;;;1.88;71.73
32251;BME280;41295;48.518;9.206;2023-03-16T07:55:17;97432.75;;;1.89;72.00
32251;BME280;41295;48.518;9.206;2023-03-16T07:57:20;97428.47;;;1.96;72.09
32251;BME280;41295;48.518;9.206;2023-03-16T07:59:24;97429.34;;;1.95;71.88
32251;BME280;41295;48.518;9.206;2023-03-16T08:01:27;97427.63;;;2.00;72.39
32251;BME280;41295;48.518;9.206;2023-03-16T08:03:29;97426.75;;;2.04;72.22
32251;BME280;41295;48.518;9.206;2023-03-16T08:05:32;97425.88;;;2.08;73.22
32251;BME280;41295;48.518;9.206;2023-03-16T08:07:35;97418.16;;;2.11;72.83
32251;BME280;41295;48.518;9.206;2023-03-16T08:09:38;97419.88;;;2.12;73.11
32251;BME280;41295;48.518;9.206;2023-03-16T08:11:40;97419.03;;;2.20;73.46
32251;BME280;41295;48.518;9.206;2023-03-16T08:13:43;97422.44;;;2.20;73.62
32251;BME280;41295;48.518;9.206;2023-03-16T08:15:49;97425.00;;;2.25;73.50
32251;BME280;41295;48.518;9.206;2023-03-16T08:17:56;97427.56;;;2.30;73.76
32251;BME280;41295;48.518;9.206;2023-03-16T08:19:59;97428.44;;;2.32;73.67
32251;BME280;41295;48.518;9.206;2023-03-16T08:22:02;97419.84;;;2.33;73.96
32251;BME280;41295;48.518;9.206;2023-03-16T08:24:05;97418.09;;;2.36;74.29
32251;BME280;41295;48.518;9.206;2023-03-16T08:26:08;97423.25;;;2.38;73.54
32251;BME280;41295;48.518;9.206;2023-03-16T08:28:10;97424.97;;;2.42;74.52
32251;BME280;41295;48.518;9.206;2023-03-16T08:30:14;97425.81;;;2.46;74.45
32251;BME280;41295;48.518;9.206;2023-03-16T08:32:19;97423.22;;;2.47;74.30
32251;BME280;41295;48.518;9.206;2023-03-16T08:34:22;97424.97;;;2.50;74.50
32251;BME280;41295;48.518;9.206;2023-03-16T08:36:24;97421.50;;;2.52;74.96
32251;BME280;41295;48.518;9.206;2023-03-16T08:38:28;97415.50;;;2.54;74.97
32251;BME280;41295;48.518;9.206;2023-03-16T08:40:31;97414.66;;;2.53;74.88
32251;BME280;41295;48.518;9.206;2023-03-16T08:42:35;97418.91;;;2.54;74.46
32251;BME280;41295;48.518;9.206;2023-03-16T08:44:39;97415.47;;;2.58;74.77
32251;BME280;41295;48.518;9.206;2023-03-16T08:46:41;97412.88;;;2.64;74.26
32251;BME280;41295;48.518;9.206;2023-03-16T08:48:46;97404.28;;;2.69;74.07
32251;BME280;41295;48.518;9.206;2023-03-16T08:50:49;97403.44;;;2.71;74.13
32251;BME280;41295;48.518;9.206;2023-03-16T08:52:52;97402.53;;;2.77;73.88
32251;BME280;41295;48.518;9.206;2023-03-16T08:54:55;97405.94;;;2.79;73.49
32251;BME280;41295;48.518;9.206;2023-03-16T08:57:04;97396.50;;;2.84;73.70
32251;BME280;41295;48.518;9.206;2023-03-16T08:59:06;97396.50;;;2.87;73.62
32251;BME280;41295;48.518;9.206;2023-03-16T09:01:29;97389.59;;;2.93;72.84
32251;BME280;41295;48.518;9.206;2023-03-16T09:03:32;97387.84;;;2.99;72.84
32251;BME280;41295;48.518;9.206;2023-03-16T09:05:36;97385.25;;;3.03;73.30
32251;BME280;41295;48.518;9.206;2023-03-16T09:07:39;97382.66;;;3.07;72.53
32251;BME280;41295;48.518;9.206;2023-03-16T09:09:42;97382.59;;;3.13;72.65
32251;BME280;41295;48.518;9.206;2023-03-16T09:11:45;97386.00;;;3.20;72.76
32251;BME280;41295;48.518;9.206;2023-03-16T09:13:50;97388.53;;;3.23;73.17
32251;BME280;41295;48.518;9.206;2023-03-16T09:15:53;97390.25;;;3.32;73.78
32251;BME280;41295;48.518;9.206;2023-03-16T09:17:56;97384.16;;;3.38;73.84
32251;BME280;41295;48.518;9.206;2023-03-16T09:20:01;97383.28;;;3.44;74.33
32251;BME280;41295;48.518;9.206;2023-03-16T09:22:23;97379.78;;;3.49;74.45
32251;BME280;41295;48.518;9.206;2023-03-16T09:24:25;97380.63;;;3.53;74.28
32251;BME280;41295;48.518;9.206;2023-03-16T09:26:28;97378.00;;;3.59;74.15
32251;BME280;41295;48.518;9.206;2023-03-16T09:28:31;97374.50;;;3.67;73.84
32251;BME280;41295;48.518;9.206;2023-03-16T09:30:33;97361.56;;;3.71;74.00
32251;BME280;41295;48.518;9.206;2023-03-16T09:32:36;97363.22;;;3.77;74.26
32251;BME280;41295;48.518;9.206;2023-03-16T09:34:39;97358.88;;;3.84;74.12
32251;BME280;41295;48.518;9.206;2023-03-16T09:36:41;97355.38;;;3.90;74.17
32251;BME280;41295;48.518;9.206;2023-03-16T09:38:45;97354.44;;;3.97;73.92
32251;BME280;41295;48.518;9.206;2023-03-16T09:40:56;97349.25;;;4.03;73.94
32251;BME280;41295;48.518;9.206;2023-03-16T09:43:11;97356.06;;;4.07;73.94
32251;BME280;41295;48.518;9.206;2023-03-16T09:45:23;97356.03;;;4.12;73.55
32251;BME280;41295;48.518;9.206;2023-03-16T09:47:30;97359.41;;;4.17;73.33
32251;BME280;41295;48.518;9.206;2023-03-16T09:49:42;97357.56;;;4.27;72.79
32251;BME280;41295;48.518;9.206;2023-03-16T09:51:47;97354.94;;;4.33;72.23
32251;BME280;41295;48.518;9.206;2023-03-16T09:53:58;97350.53;;;4.42;71.66
32251;BME280;41295;48.518;9.206;2023-03-16T09:56:07;97349.66;;;4.44;71.58
32251;BME280;41295;48.518;9.206;2023-03-16T09:58:15;97345.28;;;4.50;71.34
32251;BME280;41295;48.518;9.206;2023-03-16T10:00:21;97328.00;;;4.56;71.06
32251;BME280;41295;48.518;9.206;2023-03-16T10:02:39;97331.38;;;4.62;71.15
32251;BME280;41295;48.518;9.206;2023-03-16T10:04:54;97327.00;;;4.67;71.24
32251;BME280;41295;48.518;9.206;2023-03-16T10:07:03;97321.78;;;4.72;70.70
32251;BME280;41295;48.518;9.206;2023-03-16T10:09:24;97317.38;;;4.78;70.79
32251;BME280;41295;48.518;9.206;2023-03-16T10:11:30;97310.44;;;4.82;70.85
32251;BME280;41295;48.518;9.206;2023-03-16T10:13:40;97320.72;;;4.87;70.55
32251;BME280;41295;48.518;9.206;2023-03-16T10:15:47;97324.06;;;4.92;70.60
32251;BME280;41295;48.518;9.206;2023-03-16T10:17:53;97317.09;;;4.97;70.26
32251;BME280;41295;48.518;9.206;2023-03-16T10:20:01;97320.47;;;5.02;70.22
32251;BME280;41295;48.518;9.206;2023-03-16T10:22:17;97322.16;;;5.07;70.10
32251;BME280;41295;48.518;9.206;2023-03-16T10:24:31;97322.94;;;5.12;70.01
32251;BME280;41295;48.518;9.206;2023-03-16T10:26:40;97320.28;;;5.18;69.48
32251;BME280;41295;48.518;9.206;2023-03-16T10:28:44;97322.78;;;5.23;69.18
32251;BME280;41295;48.518;9.206;2023-03-16T10:30:51;97321.84;;;5.28;68.64
32251;BME280;41295;48.518;9.206;2023-03-16T10:32:55;97315.66;;;5.37;68.18
32251;BME280;41295;48.518;9.206;2023-03-16T10:35:03;97314.59;;;5.49;67.24
32251;BME280;41295;48.518;9.206;2023-03-16T10:37:11;97311.72;;;5.66;66.24
32251;BME280;41295;48.518;9.206;2023-03-16T10:39:14;97306.91;;;5.95;64.24
32251;BME280;41295;48.518;9.206;2023-03-16T10:41:23;97315.13;;;6.19;57.90
32251;BME280;41295;48.518;9.206;2023-03-16T10:43:27;97314.03;;;6.31;55.49
32251;BME280;41295;48.518;9.206;2023-03-16T10:45:34;97315.50;;;6.43;53.54
32251;BME280;41295;48.518;9.206;2023-03-16T10:47:37;97313.22;;;6.29;54.83
32251;BME280;41295;48.518;9.206;2023-03-16T10:49:42;97306.25;;;6.31;54.07
32251;BME280;41295;48.518;9.206;2023-03-16T10:51:49;97304.69;;;6.67;52.04
32251;BME280;41295;48.518;9.206;2023-03-16T10:53:52;97303.09;;;6.59;52.66
32251;BME280;41295;48.518;9.206;2023-03-16T10:55:58;97304.03;;;6.57;54.03
32251;BME280;41295;48.518;9.206;2023-03-16T10:58:02;97294.34;;;6.65;54.08
32251;BME280;41295;48.518;9.206;2023-03-16T11:00:07;97288.25;;;6.68;53.75
32251;BME280;41295;48.518;9.206;2023-03-16T11:02:15;97284.91;;;7.02;52.45
32251;BME280;41295;48.518;9.206;2023-03-16T11:04:18;97272.88;;;7.00;50.76
32251;BME280;41295;48.518;9.206;2023-03-16T11:06:24;97271.63;;;7.16;51.11